Latest Weather Observations for Liawenee

IDT60801

Issued at 9:01 am EDT Thursday 11 February 2016 (issued every 30 minutes, with the page automatically refreshed every 10 minutes)

About weather observations | Map of weather stations | Latest weather observations for TAS | Other Formats
Station Details ID: 096033 Name: LIAWENEE Lat: -41.90 Lon: 146.67 Height: 1057.0 m
Data from the previous 72 hours. | See also: Recent months at Liawenee
Date/Time
EDT
Temp
°C
App
Temp
°C
Dew
Point
Rel
Hum
%
Delta-T
°C
Wind Press
QNH
hPa
Press
MSL
hPa
Rain
since 9 am
mm
Dir
 
Spd
km/h
Gust
km/h
Spd
kts
Gust
kts
11/09:00am 11.1 9.8 5.8 70 2.6 S 2 6 1 3 1017.5 1015.3 0.0
11/08:30am 10.3 8.8 6.6 78 1.8 NW 4 7 2 4 1017.2 1014.9 0.0
11/08:00am 9.6 8.4 6.3 80 1.6 NNW 2 6 1 3 1017.0 1014.7 0.0
11/07:30am 6.5 4.3 5.5 93 0.5 NW 6 7 3 4 1016.7 1014.5 0.0
11/07:00am 4.9 2.4 4.5 97 0.2 NNE 7 9 4 5 1016.6 1014.4 0.0
11/06:30am 4.4 2.9 2.9 90 0.7 CALM 0 0 0 0 1016.2 1013.9 0.0
11/06:00am 6.2 3.9 5.0 92 0.6 WSW 6 7 3 4 1015.9 1013.6 0.0
11/05:30am 6.9 4.6 5.8 93 0.5 WSW 7 9 4 5 1015.7 1013.5 0.0
11/05:00am 7.4 4.8 6.2 92 0.6 W 9 13 5 7 1015.6 1013.4 0.0
11/04:30am 7.1 4.0 5.7 91 0.7 W 11 13 6 7 1015.5 1013.2 0.0
11/04:00am 6.3 2.8 5.6 95 0.3 WSW 13 17 7 9 1015.4 1013.1 0.0
11/03:30am 6.7 4.8 5.0 89 0.8 WSW 4 9 2 5 1015.5 1013.2 0.0
11/03:00am 6.8 4.4 5.3 90 0.7 WNW 7 13 4 7 1015.5 1013.2 0.0
11/02:30am 7.6 3.9 6.1 90 0.7 W 15 19 8 10 1015.6 1013.4 0.0
11/02:00am 9.0 3.3 6.6 85 1.2 W 26 33 14 18 1015.3 1013.0 0.0
11/01:30am 8.1 4.0 6.2 88 0.9 W 17 20 9 11 1015.7 1013.5 0.0
11/01:00am 8.3 3.7 6.3 87 1.0 W 20 26 11 14 1015.9 1013.6 0.0
11/12:30am 8.1 4.0 6.1 87 1.0 W 17 19 9 10 1015.7 1013.5 0.0
11/12:00am 8.2 4.2 6.5 89 0.8 W 17 19 9 10 1015.7 1013.5 0.0
 
Date/Time
EDT
Temp
°C
App
Temp
°C
Dew
Point
Rel
Hum
%
Delta-T
°C
Wind Press
QNH
hPa
Press
MSL
hPa
Rain
since 9 am
mm
Dir
 
Spd
km/h
Gust
km/h
Spd
kts
Gust
kts
10/11:30pm 8.4 5.9 6.4 87 1.0 WNW 9 11 5 6 1015.7 1013.5 0.0
10/11:00pm 8.9 6.0 6.7 86 1.1 W 11 15 6 8 1015.9 1013.6 0.0
10/10:30pm 9.7 6.1 6.8 82 1.4 W 15 20 8 11 1015.7 1013.5 0.0
10/10:00pm 11.0 7.9 7.3 78 1.9 W 13 17 7 9 1015.7 1013.5 0.0
10/09:30pm 11.2 8.2 7.5 78 1.9 SW 13 20 7 11 1015.6 1013.4 0.0
10/09:00pm 11.7 6.9 7.2 74 2.3 WSW 22 30 12 16 1015.3 1013.0 0.0
10/08:30pm 12.2 6.9 6.9 70 2.7 WSW 24 32 13 17 1015.1 1012.8 0.0
10/08:00pm 13.1 7.5 7.1 67 3.1 WSW 26 35 14 19 1014.6 1012.3 0.0
10/07:30pm 13.6 9.3 7.8 68 3.0 SW 20 28 11 15 1014.2 1011.9 0.0
10/07:00pm 15.5 11.0 8.5 63 3.8 SSW 22 30 12 16 1013.9 1011.6 0.0
10/06:30pm 17.6 13.1 8.7 56 4.8 SSW 22 32 12 17 1013.4 1011.1 0.0
10/06:00pm 18.3 14.7 9.9 58 4.7 SSW 19 26 10 14 1013.2 1010.9 0.0
10/05:30pm 19.1 14.4 9.3 53 5.4 SSW 24 41 13 22 1013.0 1010.6 0.0
10/05:00pm 18.3 14.8 8.8 54 5.2 SSW 17 24 9 13 1012.9 1010.5 0.0
10/04:30pm 20.4 17.3 9.0 48 6.3 SSW 15 24 8 13 1012.9 1010.5 0.0
10/04:00pm 21.8 18.7 7.2 39 7.9 SW 13 28 7 15 1013.0 1010.6 0.0
10/03:30pm 21.1 19.3 9.4 47 6.6 SW 9 15 5 8 1013.1 1010.8 0.0
10/03:00pm 19.6 17.9 9.8 53 5.5 SSE 9 13 5 7 1013.5 1011.2 0.0
10/02:30pm 18.5 16.3 7.9 50 5.7 E 9 13 5 7 1013.6 1011.3 0.0
10/02:00pm 20.1 17.4 8.8 48 6.3 W 13 22 7 12 1013.5 1011.2 0.0
10/01:30pm 20.4 16.6 7.4 43 7.0 SSW 17 24 9 13 1013.7 1011.4 0.0
10/01:00pm 19.9 15.6 7.0 43 6.9 SW 19 28 10 15 1014.0 1011.7 0.0
10/12:30pm 20.0 17.0 6.0 40 7.4 SSW 11 20 6 11 1014.0 1011.7 0.0
10/12:00pm 21.1 17.5 2.9 30 9.1 W 11 24 6 13 1014.2 1011.9 0.0
10/11:30am 20.5 15.1 2.3 30 8.9 W 20 28 11 15 1014.5 1012.2 0.0
10/11:00am 19.1 15.3 5.6 41 7.0 W 15 26 8 14 1014.9 1012.6 0.0
10/10:30am 17.0 15.2 5.6 47 5.8 SSW 4 9 2 5 1015.0 1012.7 0.0
10/10:00am 16.3 13.7 5.9 50 5.3 SSE 9 15 5 8 1015.2 1012.9 0.0
10/09:30am 15.3 12.6 5.8 53 4.8 SSW 9 13 5 7 1015.2 1012.9 0.0
10/09:00am 13.9 11.9 6.3 60 3.9 SSW 6 9 3 5 1015.1 1012.8 0.0
10/08:30am 12.0 10.6 5.4 64 3.2 S 2 6 1 3 1015.0 1012.7 0.0
10/08:00am 9.8 6.3 5.4 74 2.1 SSW 13 17 7 9 1015.0 1012.7 0.0
10/07:30am 8.2 5.6 4.2 76 1.9 SW 7 11 4 6 1014.5 1012.2 0.0
10/07:00am 6.7 4.8 2.8 76 1.7 S 2 7 1 4 1014.3 1012.0 0.0
10/06:30am 8.6 5.4 2.8 67 2.6 W 9 13 5 7 1014.3 1012.0 0.0
10/06:00am 8.0 4.1 3.3 72 2.1 WSW 13 17 7 9 1014.5 1012.2 0.0
10/05:30am 6.9 3.4 3.3 78 1.6 SSW 11 15 6 8 1014.7 1012.5 0.0
10/05:00am 6.9 4.1 3.2 77 1.7 SSW 7 9 4 5 1014.6 1012.3 0.0
10/04:30am 8.2 5.6 4.0 75 1.9 W 7 15 4 8 1014.7 1012.5 0.0
10/04:00am 8.3 6.1 5.2 81 1.5 WSW 6 9 3 5 1015.0 1012.7 0.0
10/03:30am 8.7 7.0 6.0 83 1.3 SW 4 7 2 4 1015.3 1013.0 0.0
10/03:00am 11.8 8.7 7.3 74 2.3 WNW 13 20 7 11 1015.5 1013.2 0.0
10/02:30am 12.5 9.1 7.6 72 2.5 WNW 15 22 8 12 1015.7 1013.5 0.0
10/02:00am 13.2 9.4 7.6 69 2.9 WNW 17 28 9 15 1016.0 1013.7 0.0
10/01:30am 13.7 10.3 7.5 66 3.2 WNW 15 20 8 11 1016.5 1014.3 0.0
10/01:00am 13.3 11.1 7.7 69 2.9 NW 9 13 5 7 1016.7 1014.5 0.0
10/12:30am 13.2 10.8 8.5 73 2.5 NW 11 17 6 9 1017.0 1014.7 0.0
10/12:00am 13.1 10.8 10.3 83 1.5 NW 13 19 7 10 1017.2 1014.9 0.0
 
Date/Time
EDT
Temp
°C
App
Temp
°C
Dew
Point
Rel
Hum
%
Delta-T
°C
Wind Press
QNH
hPa
Press
MSL
hPa
Rain
since 9 am
mm
Dir
 
Spd
km/h
Gust
km/h
Spd
kts
Gust
kts
09/11:30pm 11.4 9.5 9.1 86 1.2 WSW 9 15 5 8 1017.6 1015.4 0.0
09/11:00pm 12.7 11.0 9.9 83 1.5 WNW 9 15 5 8 1018.0 1015.7 0.0
09/10:30pm 13.5 11.5 10.1 80 1.9 NW 11 17 6 9 1018.3 1016.1 0.0
09/10:00pm 14.2 11.5 10.4 78 2.1 WNW 15 22 8 12 1018.4 1016.2 0.0
09/09:30pm 14.5 11.8 10.3 76 2.3 NW 15 22 8 12 1018.5 1016.3 0.0
09/09:00pm 14.9 12.2 10.3 74 2.5 NW 15 24 8 13 1018.3 1016.1 0.0
09/08:30pm 15.4 12.3 10.4 72 2.8 NW 17 28 9 15 1018.3 1016.1 0.0
09/08:00pm 16.0 12.8 10.1 68 3.3 NW 17 24 9 13 1018.3 1016.1 0.0
09/07:30pm 16.5 13.5 10.6 68 3.3 NW 17 26 9 14 1018.2 1016.0 0.0
09/07:00pm 17.9 14.6 11.5 66 3.7 NW 20 32 11 17 1018.1 1015.9 0.0
09/06:30pm 19.0 16.3 11.8 63 4.2 NW 17 30 9 16 1018.3 1016.1 0.0
09/06:00pm 20.1 17.0 12.3 61 4.6 NW 20 32 11 17 1018.4 1016.2 0.0
09/05:30pm 19.8 17.3 12.3 62 4.4 NNW 17 28 9 15 1018.6 1016.4 0.0
09/05:00pm 20.8 18.4 12.8 60 4.8 NNW 17 26 9 14 1019.1 1016.9 0.0
09/04:30pm 20.9 17.9 11.8 56 5.3 NW 19 32 10 17 1019.3 1017.1 0.0
09/04:00pm 20.4 17.4 11.9 58 5.0 NNW 19 30 10 16 1019.6 1017.4 0.0
09/03:30pm 20.1 16.9 11.8 59 4.8 NNW 20 32 11 17 1020.0 1017.8 0.0
09/03:00pm 20.4 17.2 11.3 56 5.3 NNW 19 28 10 15 1020.4 1018.2 0.0
09/02:30pm 21.1 17.6 10.9 52 5.9 NW 20 33 11 18 1020.6 1018.5 0.0
09/02:00pm 20.1 16.8 10.8 55 5.3 NNW 19 32 10 17 1020.9 1018.8 0.0
09/01:30pm 20.1 17.1 10.8 55 5.3 NW 17 28 9 15 1021.2 1019.0 0.0
09/01:00pm 19.6 16.0 10.0 54 5.4 NW 19 28 10 15 1021.3 1019.1 0.0
09/12:30pm 19.3 16.1 10.0 55 5.2 NNW 17 30 9 16 1021.6 1019.5 0.0
09/12:00pm 18.1 14.3 9.2 56 4.9 NW 19 28 10 15 1022.2 1020.0 0.0
09/11:30am 19.2 16.2 9.4 53 5.5 NW 15 22 8 12 1022.4 1020.3 0.0
09/11:00am 17.5 14.0 8.9 57 4.7 NNW 17 30 9 16 1022.6 1020.5 0.0
09/10:30am 17.5 14.4 8.9 57 4.7 N 15 24 8 13 1022.6 1020.5 0.0
09/10:00am 16.7 14.7 10.1 65 3.7 N 11 19 6 10 1022.6 1020.5 0.0
09/09:30am 16.2 14.1 9.6 65 3.6 NNW 11 19 6 10 1022.8 1020.7 0.0
09/09:00am 14.0 13.8 10.4 79 2.0 SSW 2 7 1 4 1022.9 1020.8 0.0
09/08:30am 10.7 9.2 8.5 86 1.1 WSW 6 9 3 5 1022.9 1020.8 0.0
09/08:00am 8.4 6.5 6.9 90 0.7 SW 6 7 3 4 1022.7 1020.6 0.0
09/07:30am 5.9 4.4 5.2 95 0.3 W 2 7 1 4 1022.6 1020.5 0.0
09/07:00am 4.2 2.8 3.8 97 0.2 CALM 0 0 0 0 1022.5 1020.4 0.0
09/06:30am 3.2 1.7 2.8 97 0.2 CALM 0 0 0 0 1022.5 1020.4 0.0
09/06:00am 3.0 0.3 2.4 96 0.3 NW 6 7 3 4 1022.3 1020.2 0.0
09/05:30am 3.7 0.9 3.4 98 0.1 WNW 7 9 4 5 1022.2 1020.0 0.0
09/05:00am 3.1 0.2 2.7 97 0.2 W 7 9 4 5 1022.2 1020.0 0.0
09/04:30am 3.3 0.4 2.7 96 0.3 WSW 7 7 4 4 1022.2 1020.0 0.0
09/04:00am 4.0 1.4 3.3 95 0.3 SW 6 9 3 5 1022.2 1020.0 0.0
09/03:30am 5.6 3.2 4.2 91 0.6 NW 6 9 3 5 1022.1 1019.9 0.0
09/03:00am 6.4 3.7 5.5 94 0.4 N 9 13 5 7 1022.3 1020.2 0.0
09/02:30am 5.8 3.1 5.4 97 0.2 NW 9 11 5 6 1022.5 1020.4 0.0
09/02:00am 5.6 2.3 4.7 94 0.4 W 11 15 6 8 1022.8 1020.7 0.0
09/01:30am 6.3 2.9 5.7 96 0.3 WNW 13 15 7 8 1023.1 1021.0 0.0
09/01:00am 4.9 2.1 3.4 90 0.7 W 7 11 4 6 1023.1 1021.0 0.0
09/12:30am 7.0 4.2 5.3 89 0.8 NW 9 11 5 6 1023.2 1021.1 0.0
09/12:00am 7.5 4.5 5.8 89 0.8 WNW 11 15 6 8 1023.3 1021.2 0.0
 
Date/Time
EDT
Temp
°C
App
Temp
°C
Dew
Point
Rel
Hum
%
Delta-T
°C
Wind Press
QNH
hPa
Press
MSL
hPa
Rain
since 9 am
mm
Dir
 
Spd
km/h
Gust
km/h
Spd
kts
Gust
kts
08/11:30pm 7.6 3.4 5.6 87 1.0 W 17 19 9 10 1023.4 1021.3 0.0
08/11:00pm 8.2 4.4 5.8 85 1.2 W 15 19 8 10 1023.3 1021.2 0.0
08/10:30pm 8.8 5.1 6.3 84 1.2 W 15 17 8 9 1023.3 1021.2 0.0
08/10:00pm 8.7 5.7 6.0 83 1.3 W 11 15 6 8 1023.5 1021.4 0.0
08/09:30pm 9.0 5.6 5.7 80 1.6 WSW 13 15 7 8 1023.4 1021.3 0.0
08/09:00pm 11.1 7.8 6.5 73 2.3 WSW 13 20 7 11 1023.1 1021.0 0.0
08/08:30pm 12.1 9.5 6.2 67 3.0 SW 9 13 5 7 1022.5 1020.4 0.0
08/08:00pm 14.9 10.9 6.5 57 4.3 SW 17 22 9 12 1022.2 1020.0 0.0
08/07:30pm 16.4 11.7 6.0 50 5.3 SW 20 28 11 15 1021.9 1019.8 0.0
08/07:00pm 17.7 13.1 6.6 48 5.8 SSW 20 30 11 16 1021.5 1019.4 0.0
08/06:30pm 18.6 13.9 6.1 44 6.5 SSW 20 30 11 16 1021.3 1019.1 0.0
08/06:00pm 19.4 13.1 5.8 41 7.1 SSW 28 39 15 21 1021.1 1018.9 0.0
08/05:30pm 20.9 16.1 5.7 37 8.0 SW 20 28 11 15 1020.8 1018.7 0.0
08/05:00pm 20.9 17.2 6.4 39 7.7 SW 15 28 8 15 1020.8 1018.7 0.0
08/04:30pm 21.8 17.6 8.3 42 7.5 SW 20 30 11 16 1020.9 1018.8 0.0
08/04:00pm 22.0 16.9 7.8 40 7.8 SW 24 33 13 18 1021.1 1018.9 0.0
08/03:30pm 22.0 17.6 7.4 39 8.0 WSW 20 32 11 17 1021.1 1018.9 0.0
08/03:00pm 21.6 16.2 7.8 41 7.5 WSW 26 35 14 19 1021.2 1019.0 0.0
08/02:30pm 21.3 15.2 6.4 38 7.9 WSW 28 39 15 21 1021.2 1019.0 0.0
08/02:00pm 21.2 15.4 8.1 43 7.2 W 28 37 15 20 1021.2 1019.0 0.0
08/01:30pm 20.9 15.6 6.8 40 7.6 SW 24 35 13 19 1021.2 1019.0 0.0
08/01:00pm 20.8 16.6 8.4 45 6.8 WSW 20 30 11 16 1021.3 1019.1 0.0
08/12:30pm 19.7 14.0 5.0 38 7.6 WSW 24 35 13 19 1021.3 1019.1 0.0
08/12:00pm 19.6 15.1 7.0 44 6.7 SW 20 30 11 16 1021.2 1019.0 0.0
08/11:30am 18.7 14.1 6.5 45 6.4 SW 20 30 11 16 1021.3 1019.1 0.0
08/11:00am 17.3 12.6 6.2 48 5.7 WSW 20 30 11 16 1021.2 1019.0 0.0
08/10:30am 16.9 12.7 8.3 57 4.6 WSW 20 28 11 15 1021.3 1019.1 0.0
08/10:00am 15.6 11.8 9.1 65 3.5 WSW 19 28 10 15 1021.4 1019.3 0.0
08/09:30am 14.7 9.9 8.9 68 3.1 SW 24 30 13 16 1021.3 1019.1 0.0

Other Formats:

Comma delimited format used in spreadsheet applications
http://www.bom.gov.au/fwo/IDT60801/IDT60801.95959.axf

JavaScript Object Notation format (JSON) in row-major order
http://www.bom.gov.au/fwo/IDT60801/IDT60801.95959.json